sensor_id;sensor_type;location;lat;lon;timestamp;temperature;humidity
12053;DHT22;6087;48.982;12.064;2023-04-03T00:02:00;5.50;1.00
12053;DHT22;6087;48.982;12.064;2023-04-03T00:04:27;5.50;1.00
12053;DHT22;6087;48.982;12.064;2023-04-03T00:06:56;5.50;1.00
12053;DHT22;6087;48.982;12.064;2023-04-03T00:09:23;5.50;1.00
12053;DHT22;6087;48.982;12.064;2023-04-03T00:11:50;5.50;1.00
12053;DHT22;6087;48.982;12.064;2023-04-03T00:14:17;5.40;1.00
12053;DHT22;6087;48.982;12.064;2023-04-03T00:16:44;5.40;1.00
12053;DHT22;6087;48.982;12.064;2023-04-03T00:19:11;5.40;1.00
12053;DHT22;6087;48.982;12.064;2023-04-03T00:21:38;5.40;1.00
12053;DHT22;6087;48.982;12.064;2023-04-03T00:24:07;5.40;1.00
12053;DHT22;6087;48.982;12.064;2023-04-03T00:26:34;5.40;1.00
12053;DHT22;6087;48.982;12.064;2023-04-03T00:29:01;5.40;1.00
12053;DHT22;6087;48.982;12.064;2023-04-03T00:31:28;5.40;1.00
12053;DHT22;6087;48.982;12.064;2023-04-03T00:33:55;5.40;1.00
12053;DHT22;6087;48.982;12.064;2023-04-03T00:36:23;5.40;1.00
12053;DHT22;6087;48.982;12.064;2023-04-03T00:38:50;5.40;1.00
12053;DHT22;6087;48.982;12.064;2023-04-03T00:41:19;5.40;1.00
12053;DHT22;6087;48.982;12.064;2023-04-03T00:43:46;5.40;1.00
12053;DHT22;6087;48.982;12.064;2023-04-03T00:46:13;5.40;1.00
12053;DHT22;6087;48.982;12.064;2023-04-03T00:48:44;5.40;1.00
12053;DHT22;6087;48.982;12.064;2023-04-03T00:51:13;5.40;1.00
12053;DHT22;6087;48.982;12.064;2023-04-03T00:53:46;5.40;1.00
12053;DHT22;6087;48.982;12.064;2023-04-03T00:56:16;5.40;1.00
12053;DHT22;6087;48.982;12.064;2023-04-03T00:58:48;5.40;1.00
12053;DHT22;6087;48.982;12.064;2023-04-03T01:01:19;5.30;1.00
12053;DHT22;6087;48.982;12.064;2023-04-03T01:03:47;5.40;1.00
12053;DHT22;6087;48.982;12.064;2023-04-03T01:06:17;5.40;1.00
12053;DHT22;6087;48.982;12.064;2023-04-03T01:08:48;5.40;1.00
12053;DHT22;6087;48.982;12.064;2023-04-03T01:11:16;5.40;1.00
12053;DHT22;6087;48.982;12.064;2023-04-03T01:13:43;5.30;1.00
12053;DHT22;6087;48.982;12.064;2023-04-03T01:16:11;5.30;1.00
12053;DHT22;6087;48.982;12.064;2023-04-03T01:18:39;5.30;1.00
12053;DHT22;6087;48.982;12.064;2023-04-03T01:21:50;5.30;1.00
12053;DHT22;6087;48.982;12.064;2023-04-03T01:24:32;5.30;1.00
12053;DHT22;6087;48.982;12.064;2023-04-03T01:27:01;5.30;1.00
12053;DHT22;6087;48.982;12.064;2023-04-03T01:29:29;5.30;1.00
12053;DHT22;6087;48.982;12.064;2023-04-03T01:31:59;5.30;1.00
12053;DHT22;6087;48.982;12.064;2023-04-03T01:34:27;5.30;1.00
12053;DHT22;6087;48.982;12.064;2023-04-03T01:36:54;5.30;1.00
12053;DHT22;6087;48.982;12.064;2023-04-03T01:39:21;5.30;1.00
12053;DHT22;6087;48.982;12.064;2023-04-03T01:41:49;5.30;1.00
12053;DHT22;6087;48.982;12.064;2023-04-03T01:44:15;5.30;1.00
12053;DHT22;6087;48.982;12.064;2023-04-03T01:46:42;5.20;1.00
12053;DHT22;6087;48.982;12.064;2023-04-03T01:49:11;5.20;1.00
12053;DHT22;6087;48.982;12.064;2023-04-03T01:51:38;5.30;1.00
12053;DHT22;6087;48.982;12.064;2023-04-03T01:54:05;5.30;1.00
12053;DHT22;6087;48.982;12.064;2023-04-03T01:56:31;5.30;1.00
12053;DHT22;6087;48.982;12.064;2023-04-03T01:58:58;5.20;1.00
12053;DHT22;6087;48.982;12.064;2023-04-03T02:01:25;5.20;1.00
12053;DHT22;6087;48.982;12.064;2023-04-03T02:03:52;5.20;1.00
12053;DHT22;6087;48.982;12.064;2023-04-03T02:06:21;5.20;1.00
12053;DHT22;6087;48.982;12.064;2023-04-03T02:08:48;5.20;1.00
12053;DHT22;6087;48.982;12.064;2023-04-03T02:11:15;5.20;1.00
12053;DHT22;6087;48.982;12.064;2023-04-03T02:13:42;5.20;1.00
12053;DHT22;6087;48.982;12.064;2023-04-03T02:16:09;5.20;1.00
12053;DHT22;6087;48.982;12.064;2023-04-03T02:18:37;5.20;1.00
12053;DHT22;6087;48.982;12.064;2023-04-03T02:21:04;5.20;1.00
12053;DHT22;6087;48.982;12.064;2023-04-03T02:23:33;5.20;1.00
12053;DHT22;6087;48.982;12.064;2023-04-03T02:26:06;5.10;1.00
12053;DHT22;6087;48.982;12.064;2023-04-03T02:28:36;5.10;1.00
12053;DHT22;6087;48.982;12.064;2023-04-03T02:31:04;5.10;1.00
12053;DHT22;6087;48.982;12.064;2023-04-03T02:33:35;5.20;1.00
12053;DHT22;6087;48.982;12.064;2023-04-03T02:36:03;5.10;1.00
12053;DHT22;6087;48.982;12.064;2023-04-03T02:38:35;5.10;1.00
12053;DHT22;6087;48.982;12.064;2023-04-03T02:41:03;5.10;1.00
12053;DHT22;6087;48.982;12.064;2023-04-03T02:43:30;5.20;1.00
12053;DHT22;6087;48.982;12.064;2023-04-03T02:45:57;5.10;1.00
12053;DHT22;6087;48.982;12.064;2023-04-03T02:48:27;5.10;1.00
12053;DHT22;6087;48.982;12.064;2023-04-03T02:50:54;5.10;1.00
12053;DHT22;6087;48.982;12.064;2023-04-03T02:53:21;5.10;1.00
12053;DHT22;6087;48.982;12.064;2023-04-03T02:55:50;5.10;1.00
12053;DHT22;6087;48.982;12.064;2023-04-03T02:58:17;5.10;1.00
12053;DHT22;6087;48.982;12.064;2023-04-03T03:00:44;5.10;1.00
12053;DHT22;6087;48.982;12.064;2023-04-03T03:03:11;5.00;1.00
12053;DHT22;6087;48.982;12.064;2023-04-03T03:05:39;5.00;1.00
12053;DHT22;6087;48.982;12.064;2023-04-03T03:08:05;5.00;1.00
12053;DHT22;6087;48.982;12.064;2023-04-03T03:10:32;5.00;1.00
12053;DHT22;6087;48.982;12.064;2023-04-03T03:13:01;5.10;1.00
12053;DHT22;6087;48.982;12.064;2023-04-03T03:15:27;5.10;1.00
12053;DHT22;6087;48.982;12.064;2023-04-03T03:17:54;5.00;1.00
12053;DHT22;6087;48.982;12.064;2023-04-03T03:20:21;5.10;1.00
12053;DHT22;6087;48.982;12.064;2023-04-03T03:22:48;5.10;1.00
12053;DHT22;6087;48.982;12.064;2023-04-03T03:25:15;5.00;1.00
12053;DHT22;6087;48.982;12.064;2023-04-03T03:27:42;5.00;1.00
12053;DHT22;6087;48.982;12.064;2023-04-03T03:30:11;5.00;1.00
12053;DHT22;6087;48.982;12.064;2023-04-03T03:32:38;5.00;1.00
12053;DHT22;6087;48.982;12.064;2023-04-03T03:35:05;5.00;1.00
12053;DHT22;6087;48.982;12.064;2023-04-03T03:37:32;4.90;1.00
12053;DHT22;6087;48.982;12.064;2023-04-03T03:39:59;4.90;1.00
12053;DHT22;6087;48.982;12.064;2023-04-03T03:42:26;4.90;1.00
12053;DHT22;6087;48.982;12.064;2023-04-03T03:44:53;4.90;1.00
12053;DHT22;6087;48.982;12.064;2023-04-03T03:47:21;4.90;1.00
12053;DHT22;6087;48.982;12.064;2023-04-03T03:49:48;5.00;1.00
12053;DHT22;6087;48.982;12.064;2023-04-03T03:52:22;4.90;1.00
12053;DHT22;6087;48.982;12.064;2023-04-03T03:54:49;4.90;1.00
12053;DHT22;6087;48.982;12.064;2023-04-03T03:57:16;4.90;1.00
12053;DHT22;6087;48.982;12.064;2023-04-03T03:59:43;4.90;1.00
12053;DHT22;6087;48.982;12.064;2023-04-03T04:02:16;4.90;1.00
12053;DHT22;6087;48.982;12.064;2023-04-03T04:04:44;4.90;1.00
12053;DHT22;6087;48.982;12.064;2023-04-03T04:07:11;4.90;1.00
12053;DHT22;6087;48.982;12.064;2023-04-03T04:09:38;4.90;1.00
12053;DHT22;6087;48.982;12.064;2023-04-03T04:12:05;4.90;1.00
12053;DHT22;6087;48.982;12.064;2023-04-03T04:14:32;4.90;1.00
12053;DHT22;6087;48.982;12.064;2023-04-03T04:16:59;4.80;1.00
12053;DHT22;6087;48.982;12.064;2023-04-03T04:19:27;4.90;1.00
12053;DHT22;6087;48.982;12.064;2023-04-03T04:21:55;4.90;1.00
12053;DHT22;6087;48.982;12.064;2023-04-03T04:24:23;4.90;1.00
12053;DHT22;6087;48.982;12.064;2023-04-03T04:26:50;4.90;1.00
12053;DHT22;6087;48.982;12.064;2023-04-03T04:29:16;4.80;1.00
12053;DHT22;6087;48.982;12.064;2023-04-03T04:31:43;4.80;1.00
12053;DHT22;6087;48.982;12.064;2023-04-03T04:34:10;4.80;1.00
12053;DHT22;6087;48.982;12.064;2023-04-03T04:36:38;4.80;1.00
12053;DHT22;6087;48.982;12.064;2023-04-03T04:39:07;4.80;1.00
12053;DHT22;6087;48.982;12.064;2023-04-03T04:41:34;4.80;1.00
12053;DHT22;6087;48.982;12.064;2023-04-03T04:44:01;4.80;1.00
12053;DHT22;6087;48.982;12.064;2023-04-03T04:46:28;4.80;1.00
12053;DHT22;6087;48.982;12.064;2023-04-03T04:48:55;4.80;1.00
12053;DHT22;6087;48.982;12.064;2023-04-03T04:51:22;4.80;1.00
12053;DHT22;6087;48.982;12.064;2023-04-03T04:53:48;4.80;1.00
12053;DHT22;6087;48.982;12.064;2023-04-03T04:56:20;4.80;1.00
12053;DHT22;6087;48.982;12.064;2023-04-03T04:58:46;4.70;1.00
12053;DHT22;6087;48.982;12.064;2023-04-03T05:01:16;4.70;1.00
12053;DHT22;6087;48.982;12.064;2023-04-03T05:03:44;4.70;1.00
12053;DHT22;6087;48.982;12.064;2023-04-03T05:06:11;4.80;1.00
12053;DHT22;6087;48.982;12.064;2023-04-03T05:08:38;4.80;1.00
12053;DHT22;6087;48.982;12.064;2023-04-03T05:11:05;4.70;1.00
12053;DHT22;6087;48.982;12.064;2023-04-03T05:13:33;4.70;1.00
12053;DHT22;6087;48.982;12.064;2023-04-03T05:16:00;4.70;1.00
12053;DHT22;6087;48.982;12.064;2023-04-03T05:18:27;4.70;1.00
12053;DHT22;6087;48.982;12.064;2023-04-03T05:20:54;4.70;1.00
12053;DHT22;6087;48.982;12.064;2023-04-03T05:23:21;4.70;1.00
12053;DHT22;6087;48.982;12.064;2023-04-03T05:25:48;4.70;1.00
12053;DHT22;6087;48.982;12.064;2023-04-03T05:28:15;4.70;1.00
12053;DHT22;6087;48.982;12.064;2023-04-03T05:30:43;4.70;1.00
12053;DHT22;6087;48.982;12.064;2023-04-03T05:33:10;4.70;1.00
12053;DHT22;6087;48.982;12.064;2023-04-03T05:35:49;4.70;1.00
12053;DHT22;6087;48.982;12.064;2023-04-03T05:38:16;4.70;1.00
12053;DHT22;6087;48.982;12.064;2023-04-03T05:40:43;4.70;1.00
12053;DHT22;6087;48.982;12.064;2023-04-03T05:43:10;4.60;1.00
12053;DHT22;6087;48.982;12.064;2023-04-03T05:45:37;4.60;1.00
12053;DHT22;6087;48.982;12.064;2023-04-03T05:48:08;4.60;1.00
12053;DHT22;6087;48.982;12.064;2023-04-03T05:50:36;4.60;1.00
12053;DHT22;6087;48.982;12.064;2023-04-03T05:53:14;4.60;1.00
12053;DHT22;6087;48.982;12.064;2023-04-03T05:55:43;4.60;1.00
12053;DHT22;6087;48.982;12.064;2023-04-03T05:58:10;4.60;1.00
12053;DHT22;6087;48.982;12.064;2023-04-03T06:00:40;4.60;1.00
12053;DHT22;6087;48.982;12.064;2023-04-03T06:03:08;4.70;1.00
12053;DHT22;6087;48.982;12.064;2023-04-03T06:05:35;4.70;1.00
12053;DHT22;6087;48.982;12.064;2023-04-03T06:08:05;4.80;1.00
12053;DHT22;6087;48.982;12.064;2023-04-03T06:10:34;4.80;1.00
12053;DHT22;6087;48.982;12.064;2023-04-03T06:13:01;4.80;1.00
12053;DHT22;6087;48.982;12.064;2023-04-03T06:15:28;4.80;1.00
12053;DHT22;6087;48.982;12.064;2023-04-03T06:17:55;4.80;1.00
12053;DHT22;6087;48.982;12.064;2023-04-03T06:20:29;4.80;1.00
12053;DHT22;6087;48.982;12.064;2023-04-03T06:22:56;4.80;1.00
12053;DHT22;6087;48.982;12.064;2023-04-03T06:25:25;4.80;1.00
12053;DHT22;6087;48.982;12.064;2023-04-03T06:27:52;4.90;1.00
12053;DHT22;6087;48.982;12.064;2023-04-03T06:30:21;4.90;1.00
12053;DHT22;6087;48.982;12.064;2023-04-03T06:32:55;5.00;1.00
12053;DHT22;6087;48.982;12.064;2023-04-03T06:35:22;4.90;1.00
12053;DHT22;6087;48.982;12.064;2023-04-03T06:37:51;4.90;1.00
12053;DHT22;6087;48.982;12.064;2023-04-03T06:40:23;5.00;1.00
12053;DHT22;6087;48.982;12.064;2023-04-03T06:42:50;5.00;1.00
12053;DHT22;6087;48.982;12.064;2023-04-03T06:45:17;5.00;1.00
12053;DHT22;6087;48.982;12.064;2023-04-03T06:47:47;5.00;1.00
12053;DHT22;6087;48.982;12.064;2023-04-03T06:50:14;5.00;1.00
12053;DHT22;6087;48.982;12.064;2023-04-03T06:52:41;5.00;1.00
12053;DHT22;6087;48.982;12.064;2023-04-03T06:55:11;5.00;1.00
12053;DHT22;6087;48.982;12.064;2023-04-03T06:57:38;5.00;1.00
12053;DHT22;6087;48.982;12.064;2023-04-03T07:00:07;5.00;1.00
12053;DHT22;6087;48.982;12.064;2023-04-03T07:02:34;5.00;1.00
12053;DHT22;6087;48.982;12.064;2023-04-03T07:05:01;5.00;1.00
12053;DHT22;6087;48.982;12.064;2023-04-03T07:07:29;5.10;1.00
12053;DHT22;6087;48.982;12.064;2023-04-03T07:09:56;5.00;1.00
12053;DHT22;6087;48.982;12.064;2023-04-03T07:12:27;5.10;1.00
12053;DHT22;6087;48.982;12.064;2023-04-03T07:14:54;5.10;1.00
12053;DHT22;6087;48.982;12.064;2023-04-03T07:17:21;5.20;1.00
12053;DHT22;6087;48.982;12.064;2023-04-03T07:19:48;5.20;1.00
12053;DHT22;6087;48.982;12.064;2023-04-03T07:22:15;5.20;1.00
12053;DHT22;6087;48.982;12.064;2023-04-03T07:24:42;5.20;1.00
12053;DHT22;6087;48.982;12.064;2023-04-03T07:27:09;5.20;1.00
12053;DHT22;6087;48.982;12.064;2023-04-03T07:29:37;5.30;1.00
12053;DHT22;6087;48.982;12.064;2023-04-03T07:32:05;5.20;1.00
12053;DHT22;6087;48.982;12.064;2023-04-03T07:34:32;5.20;1.00
12053;DHT22;6087;48.982;12.064;2023-04-03T07:36:59;5.30;1.00
12053;DHT22;6087;48.982;12.064;2023-04-03T07:39:26;5.30;1.00
12053;DHT22;6087;48.982;12.064;2023-04-03T07:41:53;5.30;1.00
12053;DHT22;6087;48.982;12.064;2023-04-03T07:44:20;5.40;1.00
12053;DHT22;6087;48.982;12.064;2023-04-03T07:46:49;5.40;1.00
12053;DHT22;6087;48.982;12.064;2023-04-03T07:49:17;5.50;1.00
12053;DHT22;6087;48.982;12.064;2023-04-03T07:51:45;5.50;1.00
12053;DHT22;6087;48.982;12.064;2023-04-03T07:54:12;5.50;1.00
12053;DHT22;6087;48.982;12.064;2023-04-03T07:56:39;5.50;1.00
12053;DHT22;6087;48.982;12.064;2023-04-03T07:59:06;5.50;1.00
12053;DHT22;6087;48.982;12.064;2023-04-03T08:01:33;5.40;1.00
12053;DHT22;6087;48.982;12.064;2023-04-03T08:04:01;5.40;1.00
12053;DHT22;6087;48.982;12.064;2023-04-03T08:06:28;5.30;99.90
12053;DHT22;6087;48.982;12.064;2023-04-03T08:08:57;5.30;1.00
12053;DHT22;6087;48.982;12.064;2023-04-03T08:11:24;5.40;1.00
12053;DHT22;6087;48.982;12.064;2023-04-03T08:13:54;5.40;1.00
12053;DHT22;6087;48.982;12.064;2023-04-03T08:16:22;5.60;1.00
12053;DHT22;6087;48.982;12.064;2023-04-03T08:18:51;5.60;1.00
12053;DHT22;6087;48.982;12.064;2023-04-03T08:21:19;5.70;99.90
12053;DHT22;6087;48.982;12.064;2023-04-03T08:23:52;5.70;1.00
12053;DHT22;6087;48.982;12.064;2023-04-03T08:26:23;5.70;1.00
12053;DHT22;6087;48.982;12.064;2023-04-03T08:28:51;5.60;1.00
12053;DHT22;6087;48.982;12.064;2023-04-03T08:31:19;5.70;1.00
12053;DHT22;6087;48.982;12.064;2023-04-03T08:33:46;5.80;1.00
12053;DHT22;6087;48.982;12.064;2023-04-03T08:36:21;5.90;1.00
12053;DHT22;6087;48.982;12.064;2023-04-03T08:38:49;6.00;1.00
12053;DHT22;6087;48.982;12.064;2023-04-03T08:41:20;6.10;1.00
12053;DHT22;6087;48.982;12.064;2023-04-03T08:44:07;6.20;1.00
12053;DHT22;6087;48.982;12.064;2023-04-03T08:46:46;6.20;1.00
12053;DHT22;6087;48.982;12.064;2023-04-03T08:49:21;6.20;1.00
12053;DHT22;6087;48.982;12.064;2023-04-03T08:51:51;6.20;1.00
12053;DHT22;6087;48.982;12.064;2023-04-03T08:54:27;6.30;1.00
12053;DHT22;6087;48.982;12.064;2023-04-03T08:56:56;6.30;1.00
12053;DHT22;6087;48.982;12.064;2023-04-03T08:59:28;6.30;1.00
12053;DHT22;6087;48.982;12.064;2023-04-03T09:01:57;6.30;1.00
12053;DHT22;6087;48.982;12.064;2023-04-03T09:04:26;6.30;99.90
12053;DHT22;6087;48.982;12.064;2023-04-03T09:06:59;6.30;99.90
12053;DHT22;6087;48.982;12.064;2023-04-03T09:09:32;6.30;99.90
12053;DHT22;6087;48.982;12.064;2023-04-03T09:12:12;6.20;99.90
12053;DHT22;6087;48.982;12.064;2023-04-03T09:14:46;6.20;1.00
12053;DHT22;6087;48.982;12.064;2023-04-03T09:17:22;6.20;1.00
12053;DHT22;6087;48.982;12.064;2023-04-03T09:19:56;6.20;99.90
12053;DHT22;6087;48.982;12.064;2023-04-03T09:22:28;6.00;99.90
12053;DHT22;6087;48.982;12.064;2023-04-03T09:25:11;6.00;99.90
12053;DHT22;6087;48.982;12.064;2023-04-03T09:27:39;6.00;1.00
12053;DHT22;6087;48.982;12.064;2023-04-03T09:30:13;6.00;99.90
12053;DHT22;6087;48.982;12.064;2023-04-03T09:32:40;6.00;99.90
12053;DHT22;6087;48.982;12.064;2023-04-03T09:35:17;6.00;99.90
12053;DHT22;6087;48.982;12.064;2023-04-03T09:37:48;6.00;99.90
12053;DHT22;6087;48.982;12.064;2023-04-03T09:40:35;6.00;98.40
12053;DHT22;6087;48.982;12.064;2023-04-03T09:46:29;6.20;1.00
12053;DHT22;6087;48.982;12.064;2023-04-03T09:49:03;6.30;99.90
12053;DHT22;6087;48.982;12.064;2023-04-03T09:51:31;6.40;99.90
12053;DHT22;6087;48.982;12.064;2023-04-03T09:54:00;6.40;1.00
12053;DHT22;6087;48.982;12.064;2023-04-03T09:56:28;6.30;99.90
12053;DHT22;6087;48.982;12.064;2023-04-03T09:59:16;6.30;1.00
12053;DHT22;6087;48.982;12.064;2023-04-03T10:01:57;6.30;1.00
12053;DHT22;6087;48.982;12.064;2023-04-03T10:04:24;6.40;1.00
12053;DHT22;6087;48.982;12.064;2023-04-03T10:06:53;6.40;1.00
12053;DHT22;6087;48.982;12.064;2023-04-03T10:09:25;6.50;1.00
12053;DHT22;6087;48.982;12.064;2023-04-03T10:12:01;6.50;1.00
12053;DHT22;6087;48.982;12.064;2023-04-03T10:14:31;6.50;99.90
12053;DHT22;6087;48.982;12.064;2023-04-03T10:17:03;6.50;1.00
12053;DHT22;6087;48.982;12.064;2023-04-03T10:19:39;6.50;99.90
12053;DHT22;6087;48.982;12.064;2023-04-03T10:22:16;6.50;1.00
12053;DHT22;6087;48.982;12.064;2023-04-03T10:24:51;6.60;99.90
12053;DHT22;6087;48.982;12.064;2023-04-03T10:27:26;6.60;99.90
12053;DHT22;6087;48.982;12.064;2023-04-03T10:30:03;6.60;99.90
12053;DHT22;6087;48.982;12.064;2023-04-03T10:32:48;6.60;99.90
12053;DHT22;6087;48.982;12.064;2023-04-03T10:35:25;6.60;99.90
12053;DHT22;6087;48.982;12.064;2023-04-03T10:38:03;6.60;99.90
12053;DHT22;6087;48.982;12.064;2023-04-03T10:40:37;6.60;99.90
12053;DHT22;6087;48.982;12.064;2023-04-03T10:43:09;6.80;1.00
12053;DHT22;6087;48.982;12.064;2023-04-03T10:45:51;6.80;1.00
12053;DHT22;6087;48.982;12.064;2023-04-03T10:48:29;6.80;1.00
12053;DHT22;6087;48.982;12.064;2023-04-03T10:51:09;6.60;99.90
12053;DHT22;6087;48.982;12.064;2023-04-03T10:53:44;6.60;1.00
12053;DHT22;6087;48.982;12.064;2023-04-03T10:56:17;6.70;1.00
12053;DHT22;6087;48.982;12.064;2023-04-03T10:58:49;6.80;1.00
12053;DHT22;6087;48.982;12.064;2023-04-03T11:01:20;6.90;99.90
12053;DHT22;6087;48.982;12.064;2023-04-03T11:03:52;6.90;1.00
12053;DHT22;6087;48.982;12.064;2023-04-03T11:06:23;7.00;99.90
12053;DHT22;6087;48.982;12.064;2023-04-03T11:08:55;7.10;99.90
12053;DHT22;6087;48.982;12.064;2023-04-03T11:11:27;7.20;99.90
12053;DHT22;6087;48.982;12.064;2023-04-03T11:14:00;7.20;99.90
12053;DHT22;6087;48.982;12.064;2023-04-03T11:16:34;7.40;93.80
12053;DHT22;6087;48.982;12.064;2023-04-03T11:19:08;7.50;99.90
12053;DHT22;6087;48.982;12.064;2023-04-03T11:21:42;7.50;99.90
12053;DHT22;6087;48.982;12.064;2023-04-03T11:24:17;7.70;99.90
12053;DHT22;6087;48.982;12.064;2023-04-03T11:26:49;7.80;99.90
12053;DHT22;6087;48.982;12.064;2023-04-03T11:29:20;7.90;99.90
12053;DHT22;6087;48.982;12.064;2023-04-03T11:32:09;8.00;1.00
12053;DHT22;6087;48.982;12.064;2023-04-03T11:34:41;8.00;1.00
12053;DHT22;6087;48.982;12.064;2023-04-03T11:37:14;8.20;15.50
12053;DHT22;6087;48.982;12.064;2023-04-03T11:39:52;8.20;99.90
12053;DHT22;6087;48.982;12.064;2023-04-03T11:42:29;8.00;1.00
12053;DHT22;6087;48.982;12.064;2023-04-03T11:45:22;7.80;99.90
12053;DHT22;6087;48.982;12.064;2023-04-03T11:47:52;7.80;99.90
12053;DHT22;6087;48.982;12.064;2023-04-03T11:50:40;7.80;98.80
12053;DHT22;6087;48.982;12.064;2023-04-03T11:53:27;7.80;1.00
12053;DHT22;6087;48.982;12.064;2023-04-03T11:55:59;8.00;1.00
12053;DHT22;6087;48.982;12.064;2023-04-03T11:58:30;8.10;1.00
12053;DHT22;6087;48.982;12.064;2023-04-03T12:01:42;8.30;20.10
12053;DHT22;6087;48.982;12.064;2023-04-03T12:04:11;8.40;85.00
12053;DHT22;6087;48.982;12.064;2023-04-03T12:10:12;8.70;99.90
12053;DHT22;6087;48.982;12.064;2023-04-03T12:12:41;8.90;1.00
12053;DHT22;6087;48.982;12.064;2023-04-03T12:21:19;9.40;1.00
12053;DHT22;6087;48.982;12.064;2023-04-03T12:24:15;9.60;1.00
12053;DHT22;6087;48.982;12.064;2023-04-03T12:27:01;10.00;99.90
12053;DHT22;6087;48.982;12.064;2023-04-03T12:29:33;9.90;1.00
12053;DHT22;6087;48.982;12.064;2023-04-03T12:32:14;9.90;1.00
12053;DHT22;6087;48.982;12.064;2023-04-03T12:34:54;10.00;1.00
12053;DHT22;6087;48.982;12.064;2023-04-03T12:37:40;10.30;1.00
12053;DHT22;6087;48.982;12.064;2023-04-03T12:40:16;10.50;22.10
12053;DHT22;6087;48.982;12.064;2023-04-03T12:43:02;10.30;99.90
12053;DHT22;6087;48.982;12.064;2023-04-03T12:45:41;10.40;1.00
12053;DHT22;6087;48.982;12.064;2023-04-03T12:48:14;10.60;1.00
12053;DHT22;6087;48.982;12.064;2023-04-03T12:50:43;10.70;1.00
12053;DHT22;6087;48.982;12.064;2023-04-03T12:53:16;10.90;1.00
12053;DHT22;6087;48.982;12.064;2023-04-03T12:55:43;11.10;1.00
12053;DHT22;6087;48.982;12.064;2023-04-03T12:58:14;11.20;1.00
12053;DHT22;6087;48.982;12.064;2023-04-03T13:00:41;11.40;1.00
12053;DHT22;6087;48.982;12.064;2023-04-03T13:03:21;11.30;68.30
12053;DHT22;6087;48.982;12.064;2023-04-03T13:05:49;11.30;99.90
12053;DHT22;6087;48.982;12.064;2023-04-03T13:08:22;11.60;1.00
12053;DHT22;6087;48.982;12.064;2023-04-03T13:10:55;11.50;99.90
12053;DHT22;6087;48.982;12.064;2023-04-03T13:13:23;11.80;99.90
12053;DHT22;6087;48.982;12.064;2023-04-03T13:15:53;12.10;1.00
12053;DHT22;6087;48.982;12.064;2023-04-03T13:18:26;12.20;1.00
12053;DHT22;6087;48.982;12.064;2023-04-03T13:20:59;12.20;1.00
12053;DHT22;6087;48.982;12.064;2023-04-03T13:23:29;12.10;1.00
12053;DHT22;6087;48.982;12.064;2023-04-03T13:25:57;11.80;1.00
12053;DHT22;6087;48.982;12.064;2023-04-03T13:28:28;11.60;1.00
12053;DHT22;6087;48.982;12.064;2023-04-03T13:31:13;11.80;1.00
12053;DHT22;6087;48.982;12.064;2023-04-03T13:33:54;12.10;1.00
12053;DHT22;6087;48.982;12.064;2023-04-03T13:36:24;12.20;1.00
12053;DHT22;6087;48.982;12.064;2023-04-03T13:39:06;12.30;1.00
12053;DHT22;6087;48.982;12.064;2023-04-03T13:41:35;12.20;1.00
12053;DHT22;6087;48.982;12.064;2023-04-03T13:44:18;11.90;1.00
12053;DHT22;6087;48.982;12.064;2023-04-03T13:46:53;11.60;1.00
12053;DHT22;6087;48.982;12.064;2023-04-03T13:49:22;11.40;1.00
12053;DHT22;6087;48.982;12.064;2023-04-03T13:51:53;11.30;1.00
12053;DHT22;6087;48.982;12.064;2023-04-03T13:54:24;11.50;1.00
12053;DHT22;6087;48.982;12.064;2023-04-03T13:56:54;11.40;1.00
12053;DHT22;6087;48.982;12.064;2023-04-03T13:59:25;11.70;1.00
12053;DHT22;6087;48.982;12.064;2023-04-03T14:01:56;11.80;1.00
12053;DHT22;6087;48.982;12.064;2023-04-03T14:04:46;12.00;1.00
12053;DHT22;6087;48.982;12.064;2023-04-03T14:07:14;11.80;1.00
12053;DHT22;6087;48.982;12.064;2023-04-03T14:09:42;11.60;1.00
12053;DHT22;6087;48.982;12.064;2023-04-03T14:12:14;11.90;1.00
12053;DHT22;6087;48.982;12.064;2023-04-03T14:14:42;11.90;1.00
12053;DHT22;6087;48.982;12.064;2023-04-03T14:17:14;12.00;1.00
12053;DHT22;6087;48.982;12.064;2023-04-03T14:19:41;12.00;1.00
12053;DHT22;6087;48.982;12.064;2023-04-03T14:22:14;11.50;1.00
12053;DHT22;6087;48.982;12.064;2023-04-03T14:24:43;11.30;1.00
12053;DHT22;6087;48.982;12.064;2023-04-03T14:27:16;11.20;1.00
12053;DHT22;6087;48.982;12.064;2023-04-03T14:29:44;11.20;1.00
12053;DHT22;6087;48.982;12.064;2023-04-03T14:32:12;11.30;1.00
12053;DHT22;6087;48.982;12.064;2023-04-03T14:34:40;11.40;1.00
12053;DHT22;6087;48.982;12.064;2023-04-03T14:37:11;11.40;1.00
12053;DHT22;6087;48.982;12.064;2023-04-03T14:39:38;11.30;1.00
12053;DHT22;6087;48.982;12.064;2023-04-03T14:42:17;11.10;1.00
12053;DHT22;6087;48.982;12.064;2023-04-03T14:44:44;11.10;1.00
12053;DHT22;6087;48.982;12.064;2023-04-03T14:47:12;11.20;1.00
12053;DHT22;6087;48.982;12.064;2023-04-03T14:49:43;11.00;1.00
12053;DHT22;6087;48.982;12.064;2023-04-03T14:52:18;10.80;1.00
12053;DHT22;6087;48.982;12.064;2023-04-03T14:54:45;10.80;1.00
12053;DHT22;6087;48.982;12.064;2023-04-03T14:57:15;10.70;1.00
12053;DHT22;6087;48.982;12.064;2023-04-03T14:59:45;10.60;1.00
12053;DHT22;6087;48.982;12.064;2023-04-03T15:02:26;10.60;1.00
12053;DHT22;6087;48.982;12.064;2023-04-03T15:04:54;10.40;1.00
12053;DHT22;6087;48.982;12.064;2023-04-03T15:07:21;10.10;1.00
12053;DHT22;6087;48.982;12.064;2023-04-03T15:09:49;9.90;1.00
12053;DHT22;6087;48.982;12.064;2023-04-03T15:12:17;9.60;1.00
12053;DHT22;6087;48.982;12.064;2023-04-03T15:14:44;9.60;1.00
12053;DHT22;6087;48.982;12.064;2023-04-03T15:17:15;9.50;1.00
12053;DHT22;6087;48.982;12.064;2023-04-03T15:19:43;9.50;1.00
12053;DHT22;6087;48.982;12.064;2023-04-03T15:22:13;9.70;1.00
12053;DHT22;6087;48.982;12.064;2023-04-03T15:24:41;9.70;1.00
12053;DHT22;6087;48.982;12.064;2023-04-03T15:27:08;9.70;1.00
12053;DHT22;6087;48.982;12.064;2023-04-03T15:29:37;9.80;1.00
12053;DHT22;6087;48.982;12.064;2023-04-03T15:32:04;9.80;1.00
12053;DHT22;6087;48.982;12.064;2023-04-03T15:34:31;9.70;1.00
12053;DHT22;6087;48.982;12.064;2023-04-03T15:36:58;9.30;1.00
12053;DHT22;6087;48.982;12.064;2023-04-03T15:39:25;9.00;1.00
12053;DHT22;6087;48.982;12.064;2023-04-03T15:41:55;9.00;1.00
12053;DHT22;6087;48.982;12.064;2023-04-03T15:44:25;8.90;1.00
12053;DHT22;6087;48.982;12.064;2023-04-03T15:47:00;8.90;1.00
12053;DHT22;6087;48.982;12.064;2023-04-03T15:49:27;8.90;1.00
12053;DHT22;6087;48.982;12.064;2023-04-03T15:51:54;8.90;1.00
12053;DHT22;6087;48.982;12.064;2023-04-03T15:54:21;8.90;1.00
12053;DHT22;6087;48.982;12.064;2023-04-03T15:56:49;8.90;1.00
12053;DHT22;6087;48.982;12.064;2023-04-03T15:59:16;8.60;1.00
12053;DHT22;6087;48.982;12.064;2023-04-03T16:01:43;8.40;1.00
12053;DHT22;6087;48.982;12.064;2023-04-03T16:04:11;8.30;1.00
12053;DHT22;6087;48.982;12.064;2023-04-03T16:06:39;8.30;1.00
12053;DHT22;6087;48.982;12.064;2023-04-03T16:09:06;8.30;1.00
12053;DHT22;6087;48.982;12.064;2023-04-03T16:11:33;8.30;1.00
12053;DHT22;6087;48.982;12.064;2023-04-03T16:14:01;8.40;1.00
12053;DHT22;6087;48.982;12.064;2023-04-03T16:16:28;8.20;1.00
12053;DHT22;6087;48.982;12.064;2023-04-03T16:18:55;8.20;1.00
12053;DHT22;6087;48.982;12.064;2023-04-03T16:21:24;8.20;1.00
12053;DHT22;6087;48.982;12.064;2023-04-03T16:23:51;8.10;1.00
12053;DHT22;6087;48.982;12.064;2023-04-03T16:26:18;8.10;1.00
12053;DHT22;6087;48.982;12.064;2023-04-03T16:28:45;8.10;1.00
12053;DHT22;6087;48.982;12.064;2023-04-03T16:31:12;8.00;1.00